Portada
METAR-TAF:

METAR-TAF

Aeroports :

Utsunomiya, Japó

latitud: 36-31N, longitud: 139-52E, altitud: 102 m

Observació

L'informe es va fer fa 5 hores i 29 minuts, a les 04:21 UTC
Vent 4 kt del Oest/Sud-Oest
Temperatura 16°C
Humitat 23%
Pressió 1015 hPa
Visibilitat 10 km o més
Escasses núvols a una alçada de 3000 ft
Núvols disperses a una alçada de 15000 ft
Cel ennuvolat a una alçada de 25000 ft

METAR: RJTU 190421Z 24004KT 9999 FEW030 SCT150 BKN250 16/M05 Q1015 RMK 1CU030 3AC150 6CI250 A2997

Hora: 18:50 (09:50 UTC)


TAF: manca

Observacions i pronòstics meteorològics de més de 4000 aeroports (METAR i TAF).

Les estacions disponibles són els punts grocs i vermells al mapa.

Posi el ratolí al punt desitjat per veure el nom de l'estació.

Feu clic per veure les observacions i els pronòstics meteorològics.

Per canviar el mapa: feu clic els botons verds amb una creu de color negre per apropar; al botó verd amb un guió per allunyar la imatge; o en les fletxes verdes per a mapes adjacents.


METAR-TAF: